createdAt,value
2017-12-09T00:02:28.384Z,42.91
2017-12-09T00:04:56.685Z,43.02
2017-12-09T00:07:25.067Z,42.90
2017-12-09T00:09:53.502Z,42.86
2017-12-09T00:12:22.076Z,42.86
2017-12-09T00:14:50.539Z,42.73
2017-12-09T00:17:18.871Z,42.80
2017-12-09T00:19:47.212Z,42.76
2017-12-09T00:22:17.425Z,42.78
2017-12-09T00:24:45.747Z,42.79
2017-12-09T00:27:14.080Z,42.72
2017-12-09T00:29:42.440Z,42.72
2017-12-09T00:32:10.760Z,42.69
2017-12-09T00:34:39.066Z,42.60
2017-12-09T00:37:07.616Z,42.62
2017-12-09T00:39:35.931Z,42.65
2017-12-09T00:42:04.455Z,42.55
2017-12-09T00:44:32.938Z,42.55
2017-12-09T00:47:01.319Z,42.57
2017-12-09T00:49:29.595Z,42.57
2017-12-09T00:51:58.189Z,42.54
2017-12-09T00:54:26.503Z,42.51
2017-12-09T00:56:54.838Z,42.51
2017-12-09T00:59:23.183Z,42.50
2017-12-09T01:01:51.466Z,42.55
2017-12-09T01:04:20.135Z,42.58
2017-12-09T01:06:48.415Z,42.53
2017-12-09T01:09:16.736Z,42.45
2017-12-09T01:11:45.203Z,42.52
2017-12-09T01:14:13.618Z,42.63
2017-12-09T01:18:58.159Z,42.55
2017-12-09T01:21:26.464Z,42.58
2017-12-09T01:23:54.775Z,42.56
2017-12-09T01:26:23.090Z,42.64
2017-12-09T01:28:51.444Z,42.68
2017-12-09T01:31:19.747Z,42.65
2017-12-09T01:33:48.016Z,42.70
2017-12-09T01:36:16.367Z,42.62
2017-12-09T01:38:44.679Z,42.70
2017-12-09T01:41:12.996Z,42.64
2017-12-09T01:43:41.363Z,42.72
2017-12-09T01:46:09.808Z,42.64
2017-12-09T01:48:38.111Z,42.70
2017-12-09T01:51:06.594Z,42.73
2017-12-09T01:53:34.936Z,42.76
2017-12-09T01:56:03.251Z,42.82
2017-12-09T01:58:31.559Z,42.83
2017-12-09T02:00:59.876Z,42.88
2017-12-09T02:03:28.311Z,42.93
2017-12-09T02:05:56.663Z,42.93
2017-12-09T02:08:24.939Z,42.89
2017-12-09T02:10:53.402Z,42.89
2017-12-09T02:13:21.838Z,42.88
2017-12-09T02:15:50.367Z,42.93
2017-12-09T02:18:18.626Z,42.99
2017-12-09T02:20:47.165Z,43.03
2017-12-09T02:23:15.475Z,42.99
2017-12-09T02:25:43.869Z,43.04
2017-12-09T02:28:12.575Z,43.04
2017-12-09T02:30:41.072Z,43.06
2017-12-09T02:33:09.591Z,43.14
2017-12-09T02:35:37.907Z,42.97
2017-12-09T02:38:06.196Z,42.97
2017-12-09T02:40:34.486Z,42.89
2017-12-09T02:43:04.323Z,42.90
2017-12-09T02:45:32.662Z,42.95
2017-12-09T02:48:01.210Z,42.88
2017-12-09T02:50:29.536Z,42.88
2017-12-09T02:52:57.846Z,42.84
2017-12-09T02:55:26.151Z,42.82
2017-12-09T02:57:54.492Z,42.87
2017-12-09T03:00:22.795Z,42.92
2017-12-09T03:02:51.095Z,42.93
2017-12-09T03:05:19.426Z,42.93
2017-12-09T03:07:47.769Z,42.80
2017-12-09T03:10:16.091Z,42.90
2017-12-09T03:12:44.399Z,42.86
2017-12-09T03:15:12.692Z,42.77
2017-12-09T03:17:40.967Z,42.98
2017-12-09T03:20:09.244Z,42.85
2017-12-09T03:22:37.519Z,42.84
2017-12-09T03:25:05.929Z,42.72
2017-12-09T03:27:34.194Z,42.63
2017-12-09T03:30:02.664Z,42.63
2017-12-09T03:32:30.978Z,42.61
2017-12-09T03:34:59.347Z,42.54
2017-12-09T03:37:27.982Z,42.46
2017-12-09T03:39:56.275Z,42.38
2017-12-09T03:42:24.723Z,42.36
2017-12-09T03:44:53.040Z,42.47
2017-12-09T03:47:21.367Z,42.41
2017-12-09T03:49:49.827Z,42.43
2017-12-09T03:52:18.110Z,42.46
2017-12-09T03:54:46.375Z,42.38
2017-12-09T03:57:14.687Z,42.36
2017-12-09T03:59:43.035Z,42.33
2017-12-09T04:02:11.339Z,42.35
2017-12-09T04:04:39.590Z,42.40
2017-12-09T04:07:07.890Z,42.35
2017-12-09T04:09:36.363Z,42.29
2017-12-09T04:12:04.676Z,42.33
2017-12-09T04:14:32.963Z,42.32
2017-12-09T04:17:01.255Z,42.23
2017-12-09T04:19:29.545Z,42.21
2017-12-09T04:21:57.835Z,42.17
2017-12-09T04:24:26.136Z,42.21
2017-12-09T04:26:54.502Z,42.18
2017-12-09T04:29:22.984Z,42.08
2017-12-09T04:31:51.272Z,42.16
2017-12-09T04:34:19.572Z,42.21
2017-12-09T04:36:47.883Z,42.22
2017-12-09T04:39:16.276Z,42.19
2017-12-09T04:41:44.571Z,42.09
2017-12-09T04:44:12.959Z,42.06
2017-12-09T04:46:41.248Z,42.05
2017-12-09T04:49:09.595Z,42.03
2017-12-09T04:51:37.924Z,42.09
2017-12-09T04:54:06.332Z,42.11
2017-12-09T04:56:34.651Z,42.20
2017-12-09T04:59:03.095Z,42.18
2017-12-09T05:01:31.383Z,42.13
2017-12-09T05:03:59.647Z,42.07
2017-12-09T05:06:27.946Z,42.06
2017-12-09T05:08:56.254Z,41.99
2017-12-09T05:11:24.712Z,42.03
2017-12-09T05:13:52.996Z,42.00
2017-12-09T05:16:21.267Z,41.98
2017-12-09T05:18:49.596Z,41.96
2017-12-09T05:21:17.935Z,41.95
2017-12-09T05:23:46.211Z,42.01
2017-12-09T05:26:14.562Z,42.00
2017-12-09T05:28:42.866Z,42.03
2017-12-09T05:31:11.336Z,41.89
2017-12-09T05:33:39.778Z,41.89
2017-12-09T05:36:08.160Z,41.89
2017-12-09T05:38:36.451Z,41.91
2017-12-09T05:41:04.827Z,41.82
2017-12-09T05:43:33.203Z,41.79
2017-12-09T05:46:01.492Z,41.83
2017-12-09T05:48:29.824Z,41.79
2017-12-09T05:50:58.147Z,41.80
2017-12-09T05:53:26.591Z,41.74
2017-12-09T05:55:54.927Z,41.82
2017-12-09T05:58:23.191Z,41.80
2017-12-09T06:00:51.663Z,41.76
2017-12-09T06:03:19.915Z,41.93
2017-12-09T06:05:48.248Z,41.91
2017-12-09T06:08:16.675Z,41.81
2017-12-09T06:10:44.988Z,41.76
2017-12-09T06:13:13.483Z,41.78
2017-12-09T06:15:41.931Z,41.76
2017-12-09T06:18:10.607Z,41.79
2017-12-09T06:20:39.098Z,41.67
2017-12-09T06:23:07.414Z,41.74
2017-12-09T06:25:35.886Z,41.68
2017-12-09T06:28:04.236Z,41.68
2017-12-09T06:30:32.595Z,41.71
2017-12-09T06:33:00.925Z,41.76
2017-12-09T06:35:29.375Z,41.79
2017-12-09T06:37:57.707Z,41.76
2017-12-09T06:40:26.012Z,41.75
2017-12-09T06:42:54.372Z,41.70
2017-12-09T06:45:22.656Z,41.74
2017-12-09T06:47:51.132Z,41.69
2017-12-09T06:50:19.426Z,41.73
2017-12-09T06:52:47.775Z,41.82
2017-12-09T06:55:16.107Z,41.89
2017-12-09T06:57:44.463Z,42.05
2017-12-09T07:00:12.761Z,42.20
2017-12-09T07:02:41.111Z,42.50
2017-12-09T07:05:09.502Z,43.12
2017-12-09T07:07:37.786Z,43.93
2017-12-09T07:10:07.084Z,44.14
2017-12-09T07:12:35.373Z,44.22
2017-12-09T07:15:03.663Z,44.47
2017-12-09T07:17:32.076Z,44.46
2017-12-09T07:20:00.334Z,44.34
2017-12-09T07:22:28.723Z,44.26
2017-12-09T07:24:57.111Z,44.21
2017-12-09T07:27:25.427Z,44.07
2017-12-09T07:29:53.707Z,44.28
2017-12-09T07:32:22.104Z,44.17
2017-12-09T07:34:50.351Z,44.16
2017-12-09T07:37:18.642Z,44.21
2017-12-09T07:39:46.979Z,44.19
2017-12-09T07:42:15.319Z,44.21
2017-12-09T07:44:43.789Z,44.28
2017-12-09T07:47:12.243Z,44.06
2017-12-09T07:49:40.715Z,43.93
2017-12-09T07:52:09.590Z,43.96
2017-12-09T07:54:38.778Z,44.26
2017-12-09T07:57:07.247Z,44.58
2017-12-09T07:59:35.525Z,45.74
2017-12-09T08:02:03.886Z,45.69
2017-12-09T08:04:32.211Z,45.92
2017-12-09T08:07:00.670Z,46.40
2017-12-09T08:09:28.947Z,46.00
2017-12-09T08:11:57.313Z,46.00
2017-12-09T08:14:25.618Z,45.80
2017-12-09T08:16:54.020Z,45.82
2017-12-09T08:19:22.309Z,46.06
2017-12-09T08:21:50.631Z,46.08
2017-12-09T08:24:18.910Z,46.11
2017-12-09T08:26:47.327Z,46.07
2017-12-09T08:29:15.588Z,46.19
2017-12-09T08:31:43.925Z,46.32
2017-12-09T08:34:12.222Z,46.39
2017-12-09T08:36:41.642Z,46.61
2017-12-09T08:39:09.927Z,46.80
2017-12-09T08:41:38.270Z,46.90
2017-12-09T08:44:06.551Z,47.04
2017-12-09T08:46:34.896Z,46.88
2017-12-09T08:49:03.611Z,46.57
2017-12-09T08:51:31.943Z,46.47
2017-12-09T08:54:00.216Z,46.44
2017-12-09T08:56:28.579Z,46.52
2017-12-09T08:58:56.843Z,46.79
2017-12-09T09:01:25.171Z,47.07
2017-12-09T09:03:53.463Z,46.82
2017-12-09T09:06:21.772Z,46.99
2017-12-09T09:08:50.067Z,46.93
2017-12-09T09:11:18.644Z,47.12
2017-12-09T09:13:46.923Z,47.13
2017-12-09T09:16:15.611Z,47.33
2017-12-09T09:18:43.952Z,47.53
2017-12-09T09:21:12.292Z,47.50
2017-12-09T09:23:40.564Z,47.68
2017-12-09T09:26:08.867Z,47.73
2017-12-09T09:28:37.159Z,47.83
2017-12-09T09:31:05.606Z,47.80
2017-12-09T09:33:33.950Z,47.90
2017-12-09T09:36:02.447Z,47.84
2017-12-09T09:38:30.888Z,47.63
2017-12-09T09:40:59.205Z,47.25
2017-12-09T09:43:27.482Z,46.82
2017-12-09T09:45:55.756Z,46.49
2017-12-09T09:48:24.045Z,46.23
2017-12-09T09:50:52.364Z,46.18
2017-12-09T09:53:20.604Z,46.27
2017-12-09T09:55:48.876Z,46.33
2017-12-09T09:58:17.474Z,46.46
2017-12-09T10:00:45.799Z,46.31
2017-12-09T10:03:14.070Z,46.01
2017-12-09T10:05:42.454Z,45.74
2017-12-09T10:08:10.718Z,45.59
2017-12-09T10:10:39.015Z,45.42
2017-12-09T10:13:07.291Z,45.33
2017-12-09T10:15:35.784Z,45.29
2017-12-09T10:18:04.108Z,45.27
2017-12-09T10:20:32.532Z,45.49
2017-12-09T10:23:00.791Z,45.12
2017-12-09T10:25:29.112Z,45.04
2017-12-09T10:27:57.650Z,44.94
2017-12-09T10:30:26.054Z,44.71
2017-12-09T10:32:54.478Z,44.58
2017-12-09T10:35:22.784Z,44.71
2017-12-09T10:37:51.059Z,44.97
2017-12-09T10:40:19.483Z,44.76
2017-12-09T10:42:47.862Z,44.80
2017-12-09T10:45:16.171Z,44.80
2017-12-09T10:47:44.532Z,44.72
2017-12-09T10:50:12.831Z,44.69
2017-12-09T10:52:41.232Z,44.79
2017-12-09T10:55:09.936Z,44.95
2017-12-09T10:57:38.279Z,45.05
2017-12-09T11:00:07.687Z,45.09
2017-12-09T11:02:35.995Z,45.17
2017-12-09T11:05:04.541Z,45.17
2017-12-09T11:07:32.932Z,45.21
2017-12-09T11:10:01.527Z,45.21
2017-12-09T11:12:30.031Z,45.21
2017-12-09T11:14:58.275Z,45.16
2017-12-09T11:17:26.599Z,45.14
2017-12-09T11:19:54.866Z,45.14
2017-12-09T11:22:23.447Z,45.15
2017-12-09T11:24:51.712Z,45.22
2017-12-09T11:27:20.209Z,45.44
2017-12-09T11:29:48.668Z,45.34
2017-12-09T11:32:16.974Z,45.27
2017-12-09T11:34:45.234Z,45.38
2017-12-09T11:37:13.583Z,45.41
2017-12-09T11:39:41.888Z,45.32
2017-12-09T11:42:10.472Z,45.54
2017-12-09T11:44:39.388Z,45.54
2017-12-09T11:47:07.819Z,45.62
2017-12-09T11:49:36.147Z,45.81
2017-12-09T11:52:04.580Z,45.77
2017-12-09T11:54:32.875Z,45.86
2017-12-09T11:57:01.335Z,45.95
2017-12-09T11:59:29.628Z,46.07
2017-12-09T12:01:58.028Z,46.09
2017-12-09T12:04:26.387Z,46.11
2017-12-09T12:06:54.863Z,46.11
2017-12-09T12:09:23.130Z,46.03
2017-12-09T12:11:51.602Z,45.93
2017-12-09T12:14:19.868Z,45.95
2017-12-09T12:16:48.571Z,45.88
2017-12-09T12:19:17.080Z,46.02
2017-12-09T12:21:45.532Z,45.96
2017-12-09T12:24:15.126Z,45.98
2017-12-09T12:26:44.769Z,46.02
2017-12-09T12:29:13.083Z,46.06
2017-12-09T12:31:41.498Z,46.21
2017-12-09T12:34:09.943Z,46.35
2017-12-09T12:36:38.311Z,46.18
2017-12-09T12:39:06.623Z,46.11
2017-12-09T12:41:35.016Z,46.04
2017-12-09T12:44:03.311Z,46.36
2017-12-09T12:46:31.859Z,46.63
2017-12-09T12:49:00.188Z,46.86
2017-12-09T12:51:28.746Z,46.52
2017-12-09T12:53:57.043Z,46.55
2017-12-09T12:56:25.391Z,46.50
2017-12-09T12:58:53.752Z,46.39
2017-12-09T13:01:22.063Z,46.36
2017-12-09T13:03:50.337Z,46.42
2017-12-09T13:06:18.673Z,46.31
2017-12-09T13:08:47.049Z,45.73
2017-12-09T13:11:15.794Z,45.21
2017-12-09T13:13:44.085Z,44.50
2017-12-09T13:16:12.373Z,44.44
2017-12-09T13:18:40.653Z,44.36
2017-12-09T13:21:08.944Z,44.33
2017-12-09T13:23:37.530Z,44.39
2017-12-09T13:26:05.836Z,44.50
2017-12-09T13:28:34.095Z,44.53
2017-12-09T13:31:02.399Z,44.54
2017-12-09T13:33:30.676Z,44.79
2017-12-09T13:35:59.143Z,44.88
2017-12-09T13:38:27.431Z,44.84
2017-12-09T13:40:55.928Z,44.82
2017-12-09T13:43:24.240Z,44.80
2017-12-09T13:45:52.591Z,44.86
2017-12-09T13:48:20.931Z,44.84
2017-12-09T13:50:49.251Z,44.77
2017-12-09T13:53:17.587Z,44.73
2017-12-09T13:55:46.605Z,44.78
2017-12-09T13:58:15.913Z,44.85
2017-12-09T14:00:44.216Z,44.74
2017-12-09T14:03:12.627Z,44.76
2017-12-09T14:05:40.935Z,44.78
2017-12-09T14:08:09.272Z,44.75
2017-12-09T14:10:37.565Z,44.74
2017-12-09T14:13:05.881Z,44.70
2017-12-09T14:15:34.183Z,44.53
2017-12-09T14:18:02.472Z,44.55
2017-12-09T14:20:30.794Z,44.41
2017-12-09T14:22:59.094Z,44.37
2017-12-09T14:25:29.372Z,44.36
2017-12-09T14:27:58.588Z,44.36
2017-12-09T14:30:27.188Z,44.44
2017-12-09T14:32:55.682Z,44.44
2017-12-09T14:35:23.986Z,44.42
2017-12-09T14:37:52.444Z,44.50
2017-12-09T14:40:20.967Z,44.55
2017-12-09T14:42:49.381Z,44.58
2017-12-09T14:45:17.659Z,44.62
2017-12-09T14:47:46.081Z,44.70
2017-12-09T14:50:14.702Z,44.76
2017-12-09T14:52:42.988Z,44.86
2017-12-09T14:55:11.271Z,44.90
2017-12-09T14:57:39.584Z,44.92
2017-12-09T15:00:07.899Z,45.00
2017-12-09T15:02:36.184Z,44.95
2017-12-09T15:05:04.475Z,44.97
2017-12-09T15:07:32.756Z,44.93
2017-12-09T15:10:01.032Z,44.96
2017-12-09T15:12:29.351Z,44.91
2017-12-09T15:14:57.745Z,44.88
2017-12-09T15:17:26.331Z,44.92
2017-12-09T15:19:54.612Z,44.88
2017-12-09T15:22:22.991Z,44.85
2017-12-09T15:24:51.271Z,44.81
2017-12-09T15:27:19.630Z,44.79
2017-12-09T15:29:47.914Z,44.85
2017-12-09T15:32:16.299Z,44.69
2017-12-09T15:34:44.555Z,44.70
2017-12-09T15:37:12.897Z,44.86
2017-12-09T15:39:41.150Z,44.81
2017-12-09T15:42:09.541Z,44.84
2017-12-09T15:44:37.820Z,44.87
2017-12-09T15:47:06.192Z,44.80
2017-12-09T15:49:34.487Z,44.83
2017-12-09T15:52:02.837Z,44.72
2017-12-09T15:54:31.204Z,44.73
2017-12-09T15:56:59.572Z,44.70
2017-12-09T15:59:27.855Z,44.73
2017-12-09T16:01:56.216Z,44.66
2017-12-09T16:04:24.499Z,44.70
2017-12-09T16:06:52.867Z,44.84
2017-12-09T16:09:21.190Z,44.96
2017-12-09T16:11:49.528Z,45.01
2017-12-09T16:14:17.827Z,45.27
2017-12-09T16:16:46.180Z,45.31
2017-12-09T16:19:14.713Z,45.27
2017-12-09T16:21:43.218Z,45.32
2017-12-09T16:24:13.062Z,45.42
2017-12-09T16:26:41.460Z,45.69
2017-12-09T16:29:09.755Z,45.68
2017-12-09T16:31:38.052Z,45.59
2017-12-09T16:34:06.443Z,45.65
2017-12-09T16:36:34.731Z,45.65
2017-12-09T16:39:03.064Z,45.98
2017-12-09T16:41:31.385Z,46.06
2017-12-09T16:43:59.712Z,46.49
2017-12-09T16:46:28.032Z,46.72
2017-12-09T16:48:56.609Z,46.83
2017-12-09T16:51:24.919Z,46.79
2017-12-09T16:53:53.332Z,46.98
2017-12-09T16:56:21.625Z,47.04
2017-12-09T16:58:49.926Z,47.00
2017-12-09T17:01:18.258Z,47.02
2017-12-09T17:03:46.658Z,47.25
2017-12-09T17:06:15.081Z,47.22
2017-12-09T17:08:43.381Z,47.40
2017-12-09T17:11:11.679Z,47.45
2017-12-09T17:13:40.007Z,47.45
2017-12-09T17:16:08.311Z,47.78
2017-12-09T17:18:36.611Z,47.61
2017-12-09T17:21:04.953Z,47.36
2017-12-09T17:23:33.328Z,47.44
2017-12-09T17:26:01.739Z,47.39
2017-12-09T17:28:30.229Z,47.40
2017-12-09T17:30:58.830Z,47.40
2017-12-09T17:33:32.608Z,47.51
2017-12-09T17:36:07.235Z,47.49
2017-12-09T17:38:36.499Z,47.32
2017-12-09T17:41:05.012Z,47.32
2017-12-09T17:43:33.318Z,47.54
2017-12-09T17:46:01.649Z,47.52
2017-12-09T17:48:30.092Z,47.45
2017-12-09T17:50:58.464Z,47.46
2017-12-09T17:53:26.765Z,47.43
2017-12-09T17:55:55.254Z,47.49
2017-12-09T17:58:23.830Z,47.47
2017-12-09T18:00:52.247Z,47.43
2017-12-09T18:03:21.283Z,47.36
2017-12-09T18:05:49.755Z,47.25
2017-12-09T18:08:21.903Z,47.11
2017-12-09T18:10:51.776Z,46.99
2017-12-09T18:13:20.052Z,46.83
2017-12-09T18:15:48.383Z,46.70
2017-12-09T18:18:16.658Z,46.62
2017-12-09T18:20:45.035Z,46.56
2017-12-09T18:23:13.979Z,46.45
2017-12-09T18:25:44.124Z,46.48
2017-12-09T18:28:12.387Z,46.39
2017-12-09T18:30:40.675Z,46.39
2017-12-09T18:33:08.975Z,46.29
2017-12-09T18:35:37.355Z,46.30
2017-12-09T18:38:05.627Z,46.16
2017-12-09T18:40:34.062Z,46.14
2017-12-09T18:43:02.355Z,46.02
2017-12-09T18:45:30.976Z,46.11
2017-12-09T18:47:59.244Z,46.12
2017-12-09T18:50:27.572Z,46.13
2017-12-09T18:52:55.911Z,46.12
2017-12-09T18:55:24.227Z,46.19
2017-12-09T18:57:52.548Z,46.17
2017-12-09T19:00:20.925Z,46.23
2017-12-09T19:02:49.360Z,46.32
2017-12-09T19:05:17.671Z,46.37
2017-12-09T19:07:45.972Z,46.34
2017-12-09T19:10:14.619Z,46.26
2017-12-09T19:12:43.055Z,46.11
2017-12-09T19:15:11.358Z,46.19
2017-12-09T19:17:39.687Z,46.24
2017-12-09T19:20:08.352Z,46.23
2017-12-09T19:22:36.647Z,46.36
2017-12-09T19:25:05.017Z,46.41
2017-12-09T19:27:33.354Z,46.29
2017-12-09T19:30:02.052Z,46.25
2017-12-09T19:32:30.520Z,46.19
2017-12-09T19:34:58.920Z,46.20
2017-12-09T19:37:27.255Z,46.25
2017-12-09T19:39:55.754Z,46.23
2017-12-09T19:42:24.108Z,46.15
2017-12-09T19:44:52.439Z,46.10
2017-12-09T19:47:20.772Z,46.11
2017-12-09T19:49:49.094Z,46.08
2017-12-09T19:52:17.441Z,46.01
2017-12-09T19:54:45.739Z,45.96
2017-12-09T19:57:14.116Z,45.88
2017-12-09T19:59:42.447Z,45.89
2017-12-09T20:02:10.795Z,45.85
2017-12-09T20:04:39.148Z,45.79
2017-12-09T20:07:07.441Z,45.77
2017-12-09T20:09:35.724Z,45.84
2017-12-09T20:12:04.027Z,45.76
2017-12-09T20:14:32.359Z,45.82
2017-12-09T20:17:00.815Z,45.83
2017-12-09T20:19:29.091Z,45.79
2017-12-09T20:21:57.395Z,45.76
2017-12-09T20:24:26.622Z,45.72
2017-12-09T20:26:55.031Z,45.81
2017-12-09T20:29:23.307Z,45.90
2017-12-09T20:31:51.611Z,45.81
2017-12-09T20:34:20.067Z,45.87
2017-12-09T20:36:48.500Z,45.84
2017-12-09T20:39:16.760Z,45.75
2017-12-09T20:41:45.085Z,45.68
2017-12-09T20:44:13.471Z,45.66
2017-12-09T20:46:41.912Z,45.58
2017-12-09T20:49:10.327Z,45.55
2017-12-09T20:51:38.615Z,45.77
2017-12-09T20:54:07.089Z,45.72
2017-12-09T20:56:35.455Z,45.72
2017-12-09T20:59:04.552Z,45.82
2017-12-09T21:01:32.847Z,45.88
2017-12-09T21:04:01.144Z,45.85
2017-12-09T21:06:29.464Z,45.89
2017-12-09T21:08:57.767Z,45.82
2017-12-09T21:11:26.890Z,45.84
2017-12-09T21:13:56.468Z,45.74
2017-12-09T21:16:25.255Z,45.67
2017-12-09T21:18:53.530Z,45.67
2017-12-09T21:21:24.024Z,45.63
2017-12-09T21:23:54.633Z,45.52
2017-12-09T21:26:23.079Z,45.59
2017-12-09T21:28:51.415Z,45.63
2017-12-09T21:31:19.886Z,45.63
2017-12-09T21:33:48.172Z,45.65
2017-12-09T21:36:16.500Z,45.66
2017-12-09T21:38:44.799Z,45.73
2017-12-09T21:41:13.209Z,45.80
2017-12-09T21:43:41.685Z,45.80
2017-12-09T21:46:09.990Z,45.76
2017-12-09T21:48:40.288Z,45.65
2017-12-09T21:51:08.614Z,45.59
2017-12-09T21:53:37.119Z,45.58
2017-12-09T21:56:05.588Z,45.59
2017-12-09T21:58:33.986Z,45.54
2017-12-09T22:01:03.638Z,45.45
2017-12-09T22:03:34.451Z,45.52
2017-12-09T22:06:03.541Z,45.49
2017-12-09T22:08:32.318Z,45.43
2017-12-09T22:11:00.846Z,45.44
2017-12-09T22:13:29.124Z,45.47
2017-12-09T22:15:58.606Z,45.50
2017-12-09T22:18:27.199Z,45.59
2017-12-09T22:20:55.508Z,45.64
2017-12-09T22:23:23.817Z,45.65
2017-12-09T22:25:52.112Z,45.63
2017-12-09T22:28:20.456Z,45.56
2017-12-09T22:30:48.947Z,45.55
2017-12-09T22:33:17.255Z,45.54
2017-12-09T22:35:45.789Z,45.66
2017-12-09T22:38:14.131Z,45.63
2017-12-09T22:40:45.831Z,45.59
2017-12-09T22:43:14.491Z,45.53
2017-12-09T22:45:45.223Z,45.44
2017-12-09T22:48:14.379Z,45.47
2017-12-09T22:50:44.812Z,45.43
2017-12-09T22:53:14.546Z,45.49
2017-12-09T22:58:38.528Z,45.39
2017-12-09T23:01:07.098Z,45.37
2017-12-09T23:03:36.870Z,45.38
2017-12-09T23:06:05.845Z,45.46
2017-12-09T23:08:34.362Z,45.48
2017-12-09T23:11:02.947Z,45.49
2017-12-09T23:13:32.374Z,45.48
2017-12-09T23:16:01.120Z,45.49
2017-12-09T23:18:29.739Z,45.42
2017-12-09T23:20:58.231Z,45.38
2017-12-09T23:23:27.146Z,45.41
2017-12-09T23:25:56.170Z,45.32
2017-12-09T23:28:26.959Z,45.28
2017-12-09T23:30:57.183Z,45.22
2017-12-09T23:33:25.674Z,45.20
2017-12-09T23:35:54.180Z,45.19
2017-12-09T23:38:22.721Z,45.25
2017-12-09T23:40:51.279Z,45.16
2017-12-09T23:43:19.739Z,45.11
2017-12-09T23:45:48.211Z,45.16
2017-12-09T23:48:16.672Z,45.04
2017-12-09T23:50:45.150Z,45.10
2017-12-09T23:53:20.724Z,45.01
2017-12-09T23:55:53.256Z,45.10
2017-12-09T23:58:22.010Z,45.17
